createdAt,value
2017-06-27T00:01:30.353Z,101510.48
2017-06-27T00:03:56.627Z,101510.56
2017-06-27T00:06:22.890Z,101499.55
2017-06-27T00:08:49.156Z,101501.75
2017-06-27T00:11:15.387Z,101506.32
2017-06-27T00:13:41.631Z,101494.64
2017-06-27T00:17:35.587Z,101505.97
2017-06-27T00:20:01.899Z,101503.98
2017-06-27T00:22:28.167Z,101498.78
2017-06-27T00:24:54.439Z,101494.63
2017-06-27T00:27:20.691Z,101488.13
2017-06-27T00:29:46.986Z,101489.98
2017-06-27T00:32:13.231Z,101494.40
2017-06-27T00:34:39.461Z,101487.28
2017-06-27T00:37:05.698Z,101477.43
2017-06-27T00:39:31.978Z,101480.12
2017-06-27T00:41:58.211Z,101483.70
2017-06-27T00:44:24.466Z,101488.34
2017-06-27T00:46:50.730Z,101486.62
2017-06-27T00:49:17.017Z,101484.41
2017-06-27T00:51:43.264Z,101491.13
2017-06-27T00:54:09.506Z,101489.20
2017-06-27T00:56:35.752Z,101489.52
2017-06-27T00:59:02.007Z,101492.99
2017-06-27T01:01:28.300Z,101494.39
2017-06-27T01:03:54.551Z,101489.17
2017-06-27T01:06:20.787Z,101480.81
2017-06-27T01:08:47.070Z,101486.34
2017-06-27T01:11:13.304Z,101483.31
2017-06-27T01:13:39.525Z,101486.44
2017-06-27T01:17:36.190Z,101484.65
2017-06-27T01:20:02.450Z,101476.94
2017-06-27T01:22:28.695Z,101475.25
2017-06-27T01:24:54.938Z,101478.27
2017-06-27T01:27:21.165Z,101478.13
2017-06-27T01:29:47.441Z,101472.59
2017-06-27T01:32:13.686Z,101474.80
2017-06-27T01:34:39.930Z,101475.00
2017-06-27T01:37:06.194Z,101468.71
2017-06-27T01:39:32.435Z,101469.96
2017-06-27T01:41:58.726Z,101463.12
2017-06-27T01:44:25.038Z,101462.79
2017-06-27T01:46:51.303Z,101460.16
2017-06-27T01:49:17.582Z,101462.31
2017-06-27T01:51:43.843Z,101459.00
2017-06-27T01:54:10.109Z,101458.11
2017-06-27T01:56:36.416Z,101447.28
2017-06-27T01:59:02.651Z,101447.33
2017-06-27T02:01:28.881Z,101443.89
2017-06-27T02:03:55.145Z,101440.83
2017-06-27T02:06:21.371Z,101437.52
2017-06-27T02:08:47.593Z,101439.99
2017-06-27T02:11:13.839Z,101438.14
2017-06-27T02:13:40.075Z,101438.67
2017-06-27T02:17:35.495Z,101438.77
2017-06-27T02:20:01.746Z,101443.08
2017-06-27T02:22:27.980Z,101434.39
2017-06-27T02:24:54.267Z,101437.07
2017-06-27T02:27:20.531Z,101431.84
2017-06-27T02:29:46.771Z,101433.42
2017-06-27T02:32:13.026Z,101432.81
2017-06-27T02:34:39.307Z,101430.52
2017-06-27T02:37:05.531Z,101425.67
2017-06-27T02:39:31.824Z,101428.52
2017-06-27T02:41:58.072Z,101424.03
2017-06-27T02:44:24.309Z,101423.01
2017-06-27T02:46:50.586Z,101421.38
2017-06-27T02:49:16.814Z,101416.99
2017-06-27T02:51:43.067Z,101417.73
2017-06-27T02:54:09.330Z,101412.45
2017-06-27T02:56:35.591Z,101410.13
2017-06-27T02:59:01.949Z,101407.14
2017-06-27T03:01:28.189Z,101409.14
2017-06-27T03:03:54.428Z,101408.61
2017-06-27T03:06:20.687Z,101410.61
2017-06-27T03:08:46.955Z,101409.52
2017-06-27T03:11:13.201Z,101411.09
2017-06-27T03:13:39.464Z,101406.05
2017-06-27T03:17:36.600Z,101401.82
2017-06-27T03:20:02.861Z,101405.09
2017-06-27T03:22:29.112Z,101399.00
2017-06-27T03:24:55.351Z,101397.17
2017-06-27T03:27:21.622Z,101389.72
2017-06-27T03:29:47.862Z,101384.44
2017-06-27T03:32:14.109Z,101385.58
2017-06-27T03:34:40.355Z,101384.11
2017-06-27T03:37:07.362Z,101378.11
2017-06-27T03:39:33.663Z,101371.95
2017-06-27T03:41:59.895Z,101364.16
2017-06-27T03:44:26.130Z,101359.47
2017-06-27T03:46:52.373Z,101362.55
2017-06-27T03:49:18.663Z,101359.17
2017-06-27T03:51:44.889Z,101358.16
2017-06-27T03:54:11.132Z,101352.65
2017-06-27T03:56:37.371Z,101351.08
2017-06-27T03:59:03.635Z,101353.05
2017-06-27T04:01:29.898Z,101361.66
2017-06-27T04:03:56.129Z,101354.64
2017-06-27T04:06:22.368Z,101351.38
2017-06-27T04:08:48.606Z,101353.72
2017-06-27T04:11:14.846Z,101346.77
2017-06-27T04:13:41.127Z,101349.98
2017-06-27T04:17:37.070Z,101342.58
2017-06-27T04:20:03.332Z,101343.97
2017-06-27T04:22:29.576Z,101339.02
2017-06-27T04:24:55.826Z,101340.97
2017-06-27T04:27:22.122Z,101334.56
2017-06-27T04:29:48.355Z,101335.09
2017-06-27T04:32:14.615Z,101323.57
2017-06-27T04:34:40.870Z,101323.00
2017-06-27T04:37:07.115Z,101321.78
2017-06-27T04:39:33.342Z,101312.89
2017-06-27T04:41:59.593Z,101314.55
2017-06-27T04:44:25.899Z,101311.75
2017-06-27T04:46:52.155Z,101311.92
2017-06-27T04:49:18.402Z,101309.51
2017-06-27T04:51:44.634Z,101310.59
2017-06-27T04:54:10.995Z,101299.70
2017-06-27T04:56:38.434Z,101304.55
2017-06-27T04:59:05.423Z,101303.18
2017-06-27T05:01:31.710Z,101292.56
2017-06-27T05:03:57.971Z,101289.62
2017-06-27T05:06:24.214Z,101291.07
2017-06-27T05:08:50.465Z,101288.02
2017-06-27T05:11:16.733Z,101290.93
2017-06-27T05:13:42.967Z,101295.24
2017-06-27T05:17:35.950Z,101294.42
2017-06-27T05:20:02.220Z,101288.98
2017-06-27T05:22:28.478Z,101284.29
2017-06-27T05:24:54.723Z,101286.16
2017-06-27T05:27:20.963Z,101283.16
2017-06-27T05:29:47.237Z,101277.87
2017-06-27T05:32:13.495Z,101279.19
2017-06-27T05:34:39.772Z,101262.97
2017-06-27T05:37:06.045Z,101259.95
2017-06-27T05:39:32.283Z,101258.59
2017-06-27T05:41:58.588Z,101259.46
2017-06-27T05:44:24.852Z,101254.55
2017-06-27T05:46:51.140Z,101257.69
2017-06-27T05:49:17.424Z,101249.02
2017-06-27T05:51:44.267Z,101249.16
2017-06-27T05:54:10.787Z,101247.48
2017-06-27T05:56:37.170Z,101251.70
2017-06-27T05:59:03.484Z,101251.37
2017-06-27T06:01:29.741Z,101249.17
2017-06-27T06:03:55.996Z,101250.70
2017-06-27T06:06:22.288Z,101243.80
2017-06-27T06:08:49.653Z,101241.48
2017-06-27T06:11:19.601Z,101242.63
2017-06-27T06:13:49.094Z,101243.92
2017-06-27T06:17:36.617Z,101238.02
2017-06-27T06:20:02.884Z,101237.76
2017-06-27T06:22:29.693Z,101243.06
2017-06-27T06:24:56.101Z,101234.80
2017-06-27T06:27:22.351Z,101230.14
2017-06-27T06:29:48.599Z,101229.27
2017-06-27T06:32:14.845Z,101220.69
2017-06-27T06:34:41.158Z,101217.45
2017-06-27T06:37:07.408Z,101221.55
2017-06-27T06:39:33.657Z,101225.81
2017-06-27T06:41:59.934Z,101228.31
2017-06-27T06:44:26.254Z,101228.48
2017-06-27T06:46:52.548Z,101222.93
2017-06-27T06:49:18.812Z,101218.89
2017-06-27T06:51:45.067Z,101225.97
2017-06-27T06:54:11.307Z,101225.39
2017-06-27T06:56:37.555Z,101217.45
2017-06-27T06:59:04.013Z,101223.49
2017-06-27T07:01:30.249Z,101231.53
2017-06-27T07:03:56.507Z,101227.74
2017-06-27T07:06:22.897Z,101237.11
2017-06-27T07:08:49.183Z,101245.11
2017-06-27T07:11:15.486Z,101246.39
2017-06-27T07:13:41.762Z,101250.52
2017-06-27T07:17:35.815Z,101243.41
2017-06-27T07:20:02.108Z,101246.38
2017-06-27T07:22:28.363Z,101233.67
2017-06-27T07:24:54.644Z,101229.40
2017-06-27T07:27:20.911Z,101226.31
2017-06-27T07:29:47.207Z,101217.22
2017-06-27T07:32:13.455Z,101216.02
2017-06-27T07:34:39.696Z,101209.21
2017-06-27T07:37:05.971Z,101208.38
2017-06-27T07:39:32.237Z,101209.41
2017-06-27T07:41:58.490Z,101210.04
2017-06-27T07:44:24.724Z,101209.30
2017-06-27T07:46:50.985Z,101215.37
2017-06-27T07:49:17.230Z,101222.95
2017-06-27T07:51:43.488Z,101214.70
2017-06-27T07:54:09.765Z,101214.87
2017-06-27T07:56:36.068Z,101213.17
2017-06-27T07:59:02.340Z,101207.41
2017-06-27T08:01:28.595Z,101203.16
2017-06-27T08:03:54.862Z,101205.82
2017-06-27T08:06:21.112Z,101202.69
2017-06-27T08:08:47.363Z,101206.44
2017-06-27T08:11:13.608Z,101199.13
2017-06-27T08:13:39.861Z,101192.81
2017-06-27T08:17:35.463Z,101191.71
2017-06-27T08:20:01.786Z,101190.69
2017-06-27T08:22:28.056Z,101191.16
2017-06-27T08:24:54.337Z,101187.13
2017-06-27T08:27:20.578Z,101182.73
2017-06-27T08:29:46.836Z,101180.44
2017-06-27T08:32:13.105Z,101175.58
2017-06-27T08:34:44.132Z,101174.59
2017-06-27T08:37:10.399Z,101166.51
2017-06-27T08:39:36.655Z,101155.96
2017-06-27T08:42:02.941Z,101156.08
2017-06-27T08:44:29.963Z,101153.77
2017-06-27T08:46:56.224Z,101154.02
2017-06-27T08:49:22.472Z,101150.51
2017-06-27T08:51:48.776Z,101145.06
2017-06-27T08:54:15.797Z,101144.06
2017-06-27T08:56:42.058Z,101134.98
2017-06-27T08:59:08.316Z,101138.84
2017-06-27T09:01:34.574Z,101132.00
2017-06-27T09:04:00.883Z,101131.14
2017-06-27T09:06:27.128Z,101130.48
2017-06-27T09:08:53.387Z,101125.78
2017-06-27T09:11:19.634Z,101125.52
2017-06-27T09:13:45.908Z,101113.47
2017-06-27T09:17:37.182Z,101109.69
2017-06-27T09:20:03.475Z,101110.55
2017-06-27T09:22:29.727Z,101111.02
2017-06-27T09:24:56.026Z,101106.18
2017-06-27T09:27:22.297Z,101108.52
2017-06-27T09:29:48.551Z,101107.77
2017-06-27T09:32:14.791Z,101107.89
2017-06-27T09:34:41.042Z,101103.84
2017-06-27T09:37:07.356Z,101100.73
2017-06-27T09:39:33.635Z,101095.70
2017-06-27T09:41:59.920Z,101093.94
2017-06-27T09:44:26.196Z,101092.77
2017-06-27T09:46:52.483Z,101091.52
2017-06-27T09:49:18.758Z,101088.66
2017-06-27T09:51:45.024Z,101082.88
2017-06-27T09:54:11.287Z,101085.53
2017-06-27T09:56:38.317Z,101086.88
2017-06-27T09:59:04.624Z,101074.55
2017-06-27T10:01:30.900Z,101082.70
2017-06-27T10:03:57.165Z,101081.70
2017-06-27T10:06:23.434Z,101073.48
2017-06-27T10:08:49.707Z,101069.43
2017-06-27T10:11:16.018Z,101068.08
2017-06-27T10:13:42.273Z,101071.59
2017-06-27T10:17:35.683Z,101065.23
2017-06-27T10:20:01.969Z,101069.98
2017-06-27T10:22:28.232Z,101066.05
2017-06-27T10:24:54.479Z,101062.77
2017-06-27T10:27:20.742Z,101053.73
2017-06-27T10:29:47.004Z,101050.51
2017-06-27T10:32:13.240Z,101055.11
2017-06-27T10:34:39.498Z,101049.14
2017-06-27T10:37:05.772Z,101051.44
2017-06-27T10:39:32.071Z,101044.96
2017-06-27T10:41:58.356Z,101047.66
2017-06-27T10:44:24.606Z,101040.31
2017-06-27T10:46:50.895Z,101039.30
2017-06-27T10:49:17.159Z,101029.94
2017-06-27T10:51:43.413Z,101031.55
2017-06-27T10:54:10.469Z,101031.41
2017-06-27T10:56:36.712Z,101027.50
2017-06-27T10:59:02.971Z,101027.27
2017-06-27T11:01:29.294Z,101025.75
2017-06-27T11:03:55.562Z,101020.13
2017-06-27T11:06:21.994Z,101018.86
2017-06-27T11:08:48.269Z,101018.51
2017-06-27T11:11:14.536Z,101018.26
2017-06-27T11:13:40.895Z,101012.72
2017-06-27T11:17:35.383Z,101004.09
2017-06-27T11:20:01.797Z,101006.80
2017-06-27T11:22:28.054Z,101005.18
2017-06-27T11:24:54.290Z,101004.89
2017-06-27T11:27:20.652Z,100995.61
2017-06-27T11:29:46.897Z,100989.30
2017-06-27T11:32:13.321Z,100989.54
2017-06-27T11:34:39.634Z,100986.84
2017-06-27T11:37:05.883Z,100984.80
2017-06-27T11:39:32.135Z,100988.25
2017-06-27T11:41:58.392Z,100989.58
2017-06-27T11:44:25.414Z,100981.16
2017-06-27T11:46:51.672Z,100973.14
2017-06-27T11:49:17.907Z,100969.44
2017-06-27T11:51:44.191Z,100972.50
2017-06-27T11:54:10.495Z,100976.95
2017-06-27T11:56:36.788Z,100973.24
2017-06-27T11:59:03.051Z,100970.64
2017-06-27T12:02:01.843Z,100962.49
2017-06-27T12:04:31.172Z,100958.05
2017-06-27T12:06:57.484Z,100956.31
2017-06-27T12:09:28.713Z,100949.58
2017-06-27T12:11:54.958Z,100951.25
2017-06-27T12:14:21.223Z,100940.22
2017-06-27T12:17:36.976Z,100944.41
2017-06-27T12:20:03.279Z,100944.53
2017-06-27T12:22:29.532Z,100938.91
2017-06-27T12:24:55.778Z,100939.95
2017-06-27T12:27:22.032Z,100946.72
2017-06-27T12:29:49.041Z,100946.29
2017-06-27T12:32:15.338Z,100940.39
2017-06-27T12:34:41.601Z,100944.89
2017-06-27T12:37:07.853Z,100940.38
2017-06-27T12:39:34.144Z,100943.09
2017-06-27T12:42:00.399Z,100937.11
2017-06-27T12:57:29.074Z,100916.44
2017-06-27T12:59:55.334Z,100918.49
2017-06-27T13:02:21.593Z,100910.80
2017-06-27T13:04:47.831Z,100913.72
2017-06-27T13:07:14.118Z,100905.00
2017-06-27T13:09:47.334Z,100908.58
2017-06-27T13:12:13.599Z,100909.02
2017-06-27T13:14:39.911Z,100902.41
2017-06-27T13:17:36.611Z,100901.48
2017-06-27T13:20:02.948Z,100900.10
2017-06-27T13:22:29.212Z,100896.66
2017-06-27T13:24:55.488Z,100894.91
2017-06-27T13:27:21.765Z,100898.37
2017-06-27T13:29:48.006Z,100901.47
2017-06-27T13:32:14.412Z,100893.87
2017-06-27T13:34:40.651Z,100892.65
2017-06-27T13:37:06.915Z,100887.42
2017-06-27T13:39:33.159Z,100888.91
2017-06-27T13:41:59.458Z,100877.95
2017-06-27T13:44:25.759Z,100880.89
2017-06-27T13:46:52.037Z,100879.58
2017-06-27T13:49:18.284Z,100878.91
2017-06-27T13:51:45.291Z,100876.16
2017-06-27T13:54:11.547Z,100869.08
2017-06-27T13:56:37.818Z,100879.28
2017-06-27T13:59:04.076Z,100869.00
2017-06-27T14:01:30.357Z,100867.41
2017-06-27T14:03:56.671Z,100865.98
2017-06-27T14:06:22.950Z,100876.50
2017-06-27T14:08:49.236Z,100869.98
2017-06-27T14:11:15.490Z,100868.43
2017-06-27T14:13:41.738Z,100871.10
2017-06-27T14:17:35.402Z,100867.09
2017-06-27T14:20:01.680Z,100862.88
2017-06-27T14:22:28.688Z,100853.85
2017-06-27T14:24:54.957Z,100852.48
2017-06-27T14:27:21.226Z,100848.84
2017-06-27T14:29:47.643Z,100848.49
2017-06-27T14:32:13.932Z,100845.69
2017-06-27T14:34:40.187Z,100844.49
2017-06-27T14:37:13.379Z,100838.09
2017-06-27T14:39:39.657Z,100832.45
2017-06-27T14:42:05.932Z,100830.37
2017-06-27T14:44:32.179Z,100831.19
2017-06-27T14:46:58.431Z,100825.50
2017-06-27T14:49:24.719Z,100824.93
2017-06-27T14:51:50.999Z,100826.09
2017-06-27T14:54:17.435Z,100818.78
2017-06-27T14:56:43.743Z,100821.15
2017-06-27T14:59:10.296Z,100820.88
2017-06-27T15:01:36.901Z,100816.80
2017-06-27T15:04:03.235Z,100813.95
2017-06-27T15:06:29.700Z,100811.37
2017-06-27T15:08:55.992Z,100808.86
2017-06-27T15:11:22.282Z,100803.33
2017-06-27T15:13:48.615Z,100798.59
2017-06-27T15:17:36.110Z,100786.58
2017-06-27T15:20:02.392Z,100789.48
2017-06-27T15:22:29.407Z,100788.54
2017-06-27T15:24:55.683Z,100790.22
2017-06-27T15:27:21.963Z,100783.81
2017-06-27T15:29:48.359Z,100776.73
2017-06-27T15:32:14.867Z,100776.59
2017-06-27T15:34:41.144Z,100771.38
2017-06-27T15:37:07.424Z,100765.48
2017-06-27T15:39:33.840Z,100760.52
2017-06-27T15:42:00.152Z,100757.09
2017-06-27T15:44:26.480Z,100750.73
2017-06-27T15:46:52.822Z,100748.33
2017-06-27T15:49:19.097Z,100746.16
2017-06-27T15:51:45.406Z,100732.63
2017-06-27T15:54:11.735Z,100727.70
2017-06-27T15:56:38.059Z,100729.10
2017-06-27T15:59:04.341Z,100727.19
2017-06-27T16:01:30.594Z,100723.41
2017-06-27T16:03:56.927Z,100713.98
2017-06-27T16:06:23.190Z,100714.17
2017-06-27T16:08:49.480Z,100711.34
2017-06-27T16:11:15.760Z,100705.13
2017-06-27T16:13:42.060Z,100707.03
2017-06-27T16:17:35.754Z,100692.83
2017-06-27T16:20:02.052Z,100690.45
2017-06-27T16:22:28.339Z,100687.98
2017-06-27T16:24:54.639Z,100688.66
2017-06-27T16:27:20.912Z,100687.80
2017-06-27T16:29:47.146Z,100679.03
2017-06-27T16:32:13.388Z,100678.70
2017-06-27T16:34:39.653Z,100669.73
2017-06-27T16:37:06.141Z,100664.47
2017-06-27T16:39:32.370Z,100660.79
2017-06-27T16:41:58.639Z,100653.19
2017-06-27T16:44:24.909Z,100650.02
2017-06-27T16:46:51.208Z,100638.56
2017-06-27T16:49:17.461Z,100639.38
2017-06-27T16:51:43.915Z,100637.08
2017-06-27T16:54:10.197Z,100631.97
2017-06-27T16:56:36.457Z,100625.89
2017-06-27T16:59:02.733Z,100628.25
2017-06-27T17:01:29.002Z,100622.75
2017-06-27T17:03:55.368Z,100617.58
2017-06-27T17:06:21.681Z,100616.80
2017-06-27T17:08:47.932Z,100610.50
2017-06-27T17:11:14.207Z,100612.09
2017-06-27T17:13:40.541Z,100612.80
2017-06-27T17:17:36.196Z,100609.52
2017-06-27T17:20:02.468Z,100604.84
2017-06-27T17:22:28.747Z,100606.64
2017-06-27T17:24:54.984Z,100602.64
2017-06-27T17:27:21.242Z,100596.80
2017-06-27T17:29:47.547Z,100599.23
2017-06-27T17:32:13.832Z,100592.63
2017-06-27T17:34:40.119Z,100588.01
2017-06-27T17:37:06.381Z,100583.23
2017-06-27T17:39:32.632Z,100582.11
2017-06-27T17:41:58.946Z,100578.48
2017-06-27T17:44:25.220Z,100573.22
2017-06-27T17:46:51.511Z,100570.69
2017-06-27T17:49:17.829Z,100574.26
2017-06-27T17:51:44.124Z,100568.02
2017-06-27T17:54:10.502Z,100571.59
2017-06-27T17:56:36.800Z,100567.73
2017-06-27T17:59:03.243Z,100569.75
2017-06-27T18:01:29.513Z,100570.25
2017-06-27T18:03:55.944Z,100566.41
2017-06-27T18:06:22.415Z,100567.30
2017-06-27T18:08:48.679Z,100567.53
2017-06-27T18:11:14.923Z,100560.52
2017-06-27T18:13:41.223Z,100551.66
2017-06-27T18:17:37.354Z,100553.25
2017-06-27T18:20:03.726Z,100547.17
2017-06-27T18:22:30.345Z,100547.45
2017-06-27T18:24:56.672Z,100550.63
2017-06-27T18:27:23.000Z,100550.77
2017-06-27T18:29:49.404Z,100545.31
2017-06-27T18:32:15.853Z,100547.17
2017-06-27T18:34:42.192Z,100545.67
2017-06-27T18:37:08.509Z,100535.80
2017-06-27T18:39:34.826Z,100534.91
2017-06-27T18:42:01.101Z,100532.69
2017-06-27T18:44:27.481Z,100531.26
2017-06-27T18:46:53.773Z,100519.42
2017-06-27T18:49:20.260Z,100517.28
2017-06-27T18:51:46.615Z,100516.03
2017-06-27T18:54:12.900Z,100514.59
2017-06-27T18:56:39.300Z,100509.99
2017-06-27T18:59:05.544Z,100509.67
2017-06-27T19:01:31.808Z,100510.29
2017-06-27T19:03:58.313Z,100506.72
2017-06-27T19:06:24.572Z,100509.41
2017-06-27T19:08:50.859Z,100503.94
2017-06-27T19:11:17.245Z,100506.47
2017-06-27T19:13:43.539Z,100504.49
2017-06-27T19:17:36.747Z,100497.66
2017-06-27T19:20:03.000Z,100495.76
2017-06-27T19:22:29.292Z,100501.83
2017-06-27T19:24:55.671Z,100506.27
2017-06-27T19:27:21.943Z,100497.72
2017-06-27T19:29:48.238Z,100503.45
2017-06-27T19:32:14.515Z,100495.19
2017-06-27T19:34:40.827Z,100486.23
2017-06-27T19:37:07.078Z,100477.19
2017-06-27T19:39:33.511Z,100465.46
2017-06-27T19:41:59.852Z,100460.37
2017-06-27T19:44:26.151Z,100456.82
2017-06-27T19:46:52.436Z,100458.13
2017-06-27T19:49:18.719Z,100460.98
2017-06-27T19:51:44.998Z,100459.69
2017-06-27T19:54:11.256Z,100465.13
2017-06-27T19:56:37.544Z,100470.56
2017-06-27T19:59:03.836Z,100470.33
2017-06-27T20:01:30.122Z,100463.25
2017-06-27T20:03:56.528Z,100452.69
2017-06-27T20:06:22.870Z,100448.78
2017-06-27T20:08:49.136Z,100451.91
2017-06-27T20:11:15.383Z,100443.27
2017-06-27T20:13:41.796Z,100438.30
2017-06-27T20:17:35.452Z,100433.84
2017-06-27T20:20:01.748Z,100436.03
2017-06-27T20:22:28.010Z,100423.00
2017-06-27T20:24:54.264Z,100415.10
2017-06-27T20:27:20.521Z,100415.42
2017-06-27T20:29:46.859Z,100414.60
2017-06-27T20:32:13.118Z,100410.45
2017-06-27T20:34:39.982Z,100405.38
2017-06-27T20:37:06.395Z,100400.42
2017-06-27T20:39:32.706Z,100394.05
2017-06-27T20:41:58.976Z,100393.96
2017-06-27T20:44:25.242Z,100394.42
2017-06-27T20:46:51.547Z,100387.39
2017-06-27T20:49:17.980Z,100393.13
2017-06-27T20:51:44.249Z,100393.41
2017-06-27T20:54:10.607Z,100389.06
2017-06-27T20:56:36.916Z,100395.48
2017-06-27T20:59:03.204Z,100387.51
2017-06-27T21:01:29.477Z,100381.88
2017-06-27T21:03:55.807Z,100380.63
2017-06-27T21:06:22.103Z,100380.28
2017-06-27T21:08:48.334Z,100375.16
2017-06-27T21:11:14.583Z,100374.11
2017-06-27T21:13:41.057Z,100376.80
2017-06-27T21:17:36.058Z,100374.30
2017-06-27T21:20:02.323Z,100369.26
2017-06-27T21:22:29.155Z,100373.64
2017-06-27T21:24:55.629Z,100375.52
2017-06-27T21:27:21.879Z,100364.77
2017-06-27T21:29:48.138Z,100366.75
2017-06-27T21:32:14.430Z,100365.43
2017-06-27T21:34:40.659Z,100359.41
2017-06-27T21:37:06.915Z,100357.38
2017-06-27T21:39:33.230Z,100350.95
2017-06-27T21:41:59.479Z,100344.20
2017-06-27T21:44:25.731Z,100341.35
2017-06-27T21:46:51.990Z,100337.52
2017-06-27T21:49:18.280Z,100338.14
2017-06-27T21:51:44.512Z,100340.80
2017-06-27T21:54:10.780Z,100330.05
2017-06-27T21:56:37.041Z,100330.41
2017-06-27T21:59:03.378Z,100323.05
2017-06-27T22:01:29.627Z,100317.98
2017-06-27T22:03:55.880Z,100310.56
2017-06-27T22:06:22.148Z,100306.41
2017-06-27T22:08:48.402Z,100308.05
2017-06-27T22:11:14.779Z,100305.55
2017-06-27T22:13:41.060Z,100296.56
2017-06-27T22:17:36.876Z,100289.53
2017-06-27T22:20:03.143Z,100295.16
2017-06-27T22:22:29.403Z,100291.17
2017-06-27T22:24:55.647Z,100287.42
2017-06-27T22:27:21.914Z,100286.37
2017-06-27T22:29:48.155Z,100289.77
2017-06-27T22:32:14.405Z,100280.08
2017-06-27T22:34:40.654Z,100275.31
2017-06-27T22:37:06.896Z,100274.69
2017-06-27T22:39:33.178Z,100272.89
2017-06-27T22:41:59.426Z,100260.91
2017-06-27T22:44:25.689Z,100262.31
2017-06-27T22:46:51.961Z,100260.94
2017-06-27T22:49:18.200Z,100260.13
2017-06-27T22:51:44.424Z,100256.88
2017-06-27T22:54:10.672Z,100250.72
2017-06-27T22:56:36.970Z,100250.13
2017-06-27T22:59:03.231Z,100240.98
2017-06-27T23:01:29.472Z,100238.52
2017-06-27T23:03:55.728Z,100238.53
2017-06-27T23:06:22.015Z,100239.77
2017-06-27T23:08:48.271Z,100245.20
2017-06-27T23:11:14.518Z,100248.52
2017-06-27T23:13:40.754Z,100244.03
2017-06-27T23:17:35.395Z,100228.30
2017-06-27T23:20:01.674Z,100229.47
2017-06-27T23:22:27.978Z,100233.68
2017-06-27T23:24:55.197Z,100219.94
2017-06-27T23:27:21.471Z,100223.05
2017-06-27T23:29:47.755Z,100214.89
2017-06-27T23:32:14.252Z,100209.63
2017-06-27T23:34:40.522Z,100191.74
2017-06-27T23:37:06.784Z,100190.65
2017-06-27T23:39:33.142Z,100185.02
2017-06-27T23:41:59.385Z,100182.95
2017-06-27T23:44:25.623Z,100182.72
2017-06-27T23:46:51.900Z,100184.75
2017-06-27T23:49:18.163Z,100181.47
2017-06-27T23:51:44.418Z,100176.36
2017-06-27T23:54:10.691Z,100157.03
2017-06-27T23:56:36.955Z,100152.31
2017-06-27T23:59:03.227Z,100141.27
